sensor_id;sensor_type;location;lat;lon;timestamp;P1;durP1;ratioP1;P2;durP2;ratioP2
53775;SDS011;44276;49.534;6.378;2023-03-31T00:01:06;12.95;;;1.80;;
53775;SDS011;44276;49.534;6.378;2023-03-31T00:03:35;12.82;;;1.85;;
53775;SDS011;44276;49.534;6.378;2023-03-31T00:06:10;11.65;;;1.70;;
53775;SDS011;44276;49.534;6.378;2023-03-31T00:08:45;7.45;;;1.98;;
53775;SDS011;44276;49.534;6.378;2023-03-31T00:11:17;7.55;;;1.70;;
53775;SDS011;44276;49.534;6.378;2023-03-31T00:13:48;6.68;;;1.55;;
53775;SDS011;44276;49.534;6.378;2023-03-31T00:16:16;4.20;;;0.88;;
53775;SDS011;44276;49.534;6.378;2023-03-31T00:18:47;4.35;;;0.98;;
53775;SDS011;44276;49.534;6.378;2023-03-31T00:21:17;4.43;;;1.40;;
53775;SDS011;44276;49.534;6.378;2023-03-31T00:24:00;14.00;;;3.03;;
53775;SDS011;44276;49.534;6.378;2023-03-31T00:26:31;7.00;;;1.02;;
53775;SDS011;44276;49.534;6.378;2023-03-31T00:29:02;4.20;;;1.30;;
53775;SDS011;44276;49.534;6.378;2023-03-31T00:31:32;4.22;;;1.40;;
53775;SDS011;44276;49.534;6.378;2023-03-31T00:34:01;6.25;;;2.40;;
53775;SDS011;44276;49.534;6.378;2023-03-31T00:36:29;3.60;;;1.25;;
53775;SDS011;44276;49.534;6.378;2023-03-31T00:39:04;11.73;;;1.63;;
53775;SDS011;44276;49.534;6.378;2023-03-31T00:41:34;11.27;;;1.48;;
53775;SDS011;44276;49.534;6.378;2023-03-31T00:44:08;5.05;;;1.75;;
53775;SDS011;44276;49.534;6.378;2023-03-31T00:46:45;4.78;;;1.15;;
53775;SDS011;44276;49.534;6.378;2023-03-31T00:49:22;6.40;;;1.50;;
53775;SDS011;44276;49.534;6.378;2023-03-31T00:51:56;16.65;;;2.33;;
53775;SDS011;44276;49.534;6.378;2023-03-31T00:54:32;7.97;;;1.58;;
53775;SDS011;44276;49.534;6.378;2023-03-31T00:57:03;9.38;;;1.70;;
53775;SDS011;44276;49.534;6.378;2023-03-31T00:59:35;7.22;;;1.80;;
53775;SDS011;44276;49.534;6.378;2023-03-31T01:02:09;6.65;;;2.05;;
53775;SDS011;44276;49.534;6.378;2023-03-31T01:04:41;15.10;;;1.60;;
53775;SDS011;44276;49.534;6.378;2023-03-31T01:07:21;11.60;;;1.13;;
53775;SDS011;44276;49.534;6.378;2023-03-31T01:09:57;9.93;;;1.00;;
53775;SDS011;44276;49.534;6.378;2023-03-31T01:12:28;10.75;;;2.22;;
53775;SDS011;44276;49.534;6.378;2023-03-31T01:14:59;10.75;;;1.80;;
53775;SDS011;44276;49.534;6.378;2023-03-31T01:17:30;6.28;;;1.98;;
53775;SDS011;44276;49.534;6.378;2023-03-31T01:20:02;7.95;;;1.45;;
53775;SDS011;44276;49.534;6.378;2023-03-31T01:33:05;14.88;;;1.83;;
53775;SDS011;44276;49.534;6.378;2023-03-31T01:36:22;10.65;;;1.95;;
53775;SDS011;44276;49.534;6.378;2023-03-31T01:42:52;10.13;;;1.95;;
53775;SDS011;44276;49.534;6.378;2023-03-31T01:45:31;8.90;;;1.30;;
53775;SDS011;44276;49.534;6.378;2023-03-31T01:48:14;8.77;;;1.27;;
53775;SDS011;44276;49.534;6.378;2023-03-31T01:50:47;3.70;;;1.60;;
53775;SDS011;44276;49.534;6.378;2023-03-31T01:53:25;11.75;;;1.55;;
53775;SDS011;44276;49.534;6.378;2023-03-31T01:56:04;9.02;;;1.63;;
53775;SDS011;44276;49.534;6.378;2023-03-31T01:58:40;10.88;;;1.48;;
53775;SDS011;44276;49.534;6.378;2023-03-31T02:01:17;4.97;;;1.33;;
53775;SDS011;44276;49.534;6.378;2023-03-31T02:03:57;7.10;;;1.42;;
53775;SDS011;44276;49.534;6.378;2023-03-31T02:06:32;10.73;;;1.35;;
53775;SDS011;44276;49.534;6.378;2023-03-31T02:09:08;8.57;;;1.95;;
53775;SDS011;44276;49.534;6.378;2023-03-31T02:11:43;6.78;;;1.45;;
53775;SDS011;44276;49.534;6.378;2023-03-31T02:14:16;8.50;;;1.90;;
53775;SDS011;44276;49.534;6.378;2023-03-31T02:16:51;15.15;;;2.33;;
53775;SDS011;44276;49.534;6.378;2023-03-31T02:19:25;6.30;;;1.48;;
53775;SDS011;44276;49.534;6.378;2023-03-31T02:22:07;7.05;;;2.17;;
53775;SDS011;44276;49.534;6.378;2023-03-31T02:24:38;5.88;;;1.85;;
53775;SDS011;44276;49.534;6.378;2023-03-31T02:27:11;9.00;;;1.65;;
53775;SDS011;44276;49.534;6.378;2023-03-31T02:29:48;7.55;;;1.42;;
53775;SDS011;44276;49.534;6.378;2023-03-31T02:32:19;5.05;;;1.52;;
53775;SDS011;44276;49.534;6.378;2023-03-31T02:34:51;8.93;;;1.83;;
53775;SDS011;44276;49.534;6.378;2023-03-31T02:37:20;6.68;;;1.58;;
53775;SDS011;44276;49.534;6.378;2023-03-31T02:39:49;9.93;;;2.13;;
53775;SDS011;44276;49.534;6.378;2023-03-31T02:42:23;4.22;;;1.42;;
53775;SDS011;44276;49.534;6.378;2023-03-31T02:44:51;5.88;;;2.10;;
53775;SDS011;44276;49.534;6.378;2023-03-31T02:47:20;2.90;;;1.67;;
53775;SDS011;44276;49.534;6.378;2023-03-31T02:49:50;4.85;;;1.80;;
53775;SDS011;44276;49.534;6.378;2023-03-31T02:52:29;6.20;;;0.98;;
53775;SDS011;44276;49.534;6.378;2023-03-31T02:55:19;6.13;;;1.48;;
53775;SDS011;44276;49.534;6.378;2023-03-31T02:58:26;4.65;;;1.45;;
53775;SDS011;44276;49.534;6.378;2023-03-31T03:01:26;7.97;;;1.20;;
53775;SDS011;44276;49.534;6.378;2023-03-31T03:04:18;7.78;;;1.20;;
53775;SDS011;44276;49.534;6.378;2023-03-31T03:07:07;4.32;;;1.48;;
53775;SDS011;44276;49.534;6.378;2023-03-31T03:09:49;4.68;;;1.00;;
53775;SDS011;44276;49.534;6.378;2023-03-31T03:12:31;11.20;;;1.80;;
53775;SDS011;44276;49.534;6.378;2023-03-31T03:15:11;3.53;;;0.88;;
53775;SDS011;44276;49.534;6.378;2023-03-31T03:17:45;1.83;;;0.80;;
53775;SDS011;44276;49.534;6.378;2023-03-31T03:20:17;6.53;;;1.15;;
53775;SDS011;44276;49.534;6.378;2023-03-31T03:22:47;8.25;;;2.40;;
53775;SDS011;44276;49.534;6.378;2023-03-31T03:25:16;5.47;;;1.30;;
53775;SDS011;44276;49.534;6.378;2023-03-31T03:27:45;10.27;;;1.63;;
53775;SDS011;44276;49.534;6.378;2023-03-31T03:30:16;8.38;;;1.83;;
53775;SDS011;44276;49.534;6.378;2023-03-31T03:32:44;8.95;;;2.20;;
53775;SDS011;44276;49.534;6.378;2023-03-31T03:35:12;15.63;;;2.88;;
53775;SDS011;44276;49.534;6.378;2023-03-31T03:37:40;10.38;;;3.35;;
53775;SDS011;44276;49.534;6.378;2023-03-31T03:40:09;10.90;;;2.22;;
53775;SDS011;44276;49.534;6.378;2023-03-31T03:42:37;4.85;;;1.42;;
53775;SDS011;44276;49.534;6.378;2023-03-31T03:45:06;8.30;;;3.03;;
53775;SDS011;44276;49.534;6.378;2023-03-31T03:47:37;14.35;;;1.92;;
53775;SDS011;44276;49.534;6.378;2023-03-31T03:50:05;4.82;;;2.03;;
53775;SDS011;44276;49.534;6.378;2023-03-31T03:52:35;7.65;;;1.60;;
53775;SDS011;44276;49.534;6.378;2023-03-31T03:55:04;9.05;;;3.00;;
53775;SDS011;44276;49.534;6.378;2023-03-31T03:57:33;13.15;;;2.13;;
53775;SDS011;44276;49.534;6.378;2023-03-31T04:00:01;16.48;;;3.03;;
53775;SDS011;44276;49.534;6.378;2023-03-31T04:02:35;10.45;;;2.15;;
53775;SDS011;44276;49.534;6.378;2023-03-31T04:05:05;7.90;;;1.52;;
53775;SDS011;44276;49.534;6.378;2023-03-31T04:07:33;8.10;;;1.73;;
53775;SDS011;44276;49.534;6.378;2023-03-31T04:10:02;19.20;;;4.03;;
53775;SDS011;44276;49.534;6.378;2023-03-31T04:12:32;10.70;;;1.50;;
53775;SDS011;44276;49.534;6.378;2023-03-31T04:15:01;9.93;;;2.60;;
53775;SDS011;44276;49.534;6.378;2023-03-31T04:17:30;14.90;;;3.35;;
53775;SDS011;44276;49.534;6.378;2023-03-31T04:20:02;18.38;;;3.63;;
53775;SDS011;44276;49.534;6.378;2023-03-31T04:22:34;11.20;;;2.95;;
53775;SDS011;44276;49.534;6.378;2023-03-31T04:25:07;13.32;;;2.47;;
53775;SDS011;44276;49.534;6.378;2023-03-31T04:27:41;11.05;;;2.50;;
53775;SDS011;44276;49.534;6.378;2023-03-31T04:30:12;12.40;;;2.95;;
53775;SDS011;44276;49.534;6.378;2023-03-31T04:32:48;16.45;;;3.05;;
53775;SDS011;44276;49.534;6.378;2023-03-31T04:35:20;9.43;;;1.95;;
53775;SDS011;44276;49.534;6.378;2023-03-31T04:37:50;11.00;;;2.78;;
53775;SDS011;44276;49.534;6.378;2023-03-31T04:40:24;19.45;;;4.63;;
53775;SDS011;44276;49.534;6.378;2023-03-31T04:42:52;11.05;;;3.60;;
53775;SDS011;44276;49.534;6.378;2023-03-31T04:45:20;29.30;;;4.45;;
53775;SDS011;44276;49.534;6.378;2023-03-31T04:47:48;12.73;;;4.07;;
53775;SDS011;44276;49.534;6.378;2023-03-31T04:50:17;14.57;;;3.38;;
53775;SDS011;44276;49.534;6.378;2023-03-31T04:52:47;15.15;;;3.78;;
53775;SDS011;44276;49.534;6.378;2023-03-31T04:55:15;16.98;;;4.32;;
53775;SDS011;44276;49.534;6.378;2023-03-31T04:57:44;10.60;;;3.85;;
53775;SDS011;44276;49.534;6.378;2023-03-31T05:00:12;13.45;;;4.85;;
53775;SDS011;44276;49.534;6.378;2023-03-31T05:02:42;26.25;;;5.25;;
53775;SDS011;44276;49.534;6.378;2023-03-31T05:05:11;17.15;;;4.55;;
53775;SDS011;44276;49.534;6.378;2023-03-31T05:07:55;17.15;;;6.22;;
53775;SDS011;44276;49.534;6.378;2023-03-31T05:10:23;13.02;;;4.25;;
53775;SDS011;44276;49.534;6.378;2023-03-31T05:12:52;11.68;;;4.30;;
53775;SDS011;44276;49.534;6.378;2023-03-31T05:15:20;8.95;;;3.25;;
53775;SDS011;44276;49.534;6.378;2023-03-31T05:17:49;8.68;;;3.25;;
53775;SDS011;44276;49.534;6.378;2023-03-31T05:20:19;9.18;;;4.32;;
53775;SDS011;44276;49.534;6.378;2023-03-31T05:22:47;6.78;;;3.08;;
53775;SDS011;44276;49.534;6.378;2023-03-31T05:25:17;5.47;;;3.03;;
53775;SDS011;44276;49.534;6.378;2023-03-31T05:27:45;8.82;;;3.38;;
53775;SDS011;44276;49.534;6.378;2023-03-31T05:30:15;9.30;;;2.67;;
53775;SDS011;44276;49.534;6.378;2023-03-31T05:32:44;7.95;;;2.97;;
53775;SDS011;44276;49.534;6.378;2023-03-31T05:35:12;7.78;;;3.22;;
53775;SDS011;44276;49.534;6.378;2023-03-31T05:37:40;9.95;;;2.90;;
53775;SDS011;44276;49.534;6.378;2023-03-31T05:40:09;6.53;;;1.80;;
53775;SDS011;44276;49.534;6.378;2023-03-31T05:42:39;3.53;;;1.50;;
53775;SDS011;44276;49.534;6.378;2023-03-31T05:45:08;4.07;;;1.13;;
53775;SDS011;44276;49.534;6.378;2023-03-31T05:47:37;3.90;;;0.77;;
53775;SDS011;44276;49.534;6.378;2023-03-31T05:50:06;3.30;;;0.70;;
53775;SDS011;44276;49.534;6.378;2023-03-31T05:52:38;1.88;;;0.63;;
53775;SDS011;44276;49.534;6.378;2023-03-31T05:55:07;0.95;;;0.40;;
53775;SDS011;44276;49.534;6.378;2023-03-31T05:57:36;2.05;;;1.05;;
53775;SDS011;44276;49.534;6.378;2023-03-31T06:00:07;1.35;;;1.00;;
53775;SDS011;44276;49.534;6.378;2023-03-31T06:02:38;1.60;;;0.60;;
53775;SDS011;44276;49.534;6.378;2023-03-31T06:05:07;2.00;;;0.80;;
53775;SDS011;44276;49.534;6.378;2023-03-31T06:07:35;2.45;;;1.35;;
53775;SDS011;44276;49.534;6.378;2023-03-31T06:10:04;6.30;;;2.13;;
53775;SDS011;44276;49.534;6.378;2023-03-31T06:12:36;8.63;;;2.28;;
53775;SDS011;44276;49.534;6.378;2023-03-31T06:15:04;7.72;;;2.30;;
53775;SDS011;44276;49.534;6.378;2023-03-31T06:17:35;12.00;;;2.90;;
53775;SDS011;44276;49.534;6.378;2023-03-31T06:20:04;7.55;;;2.50;;
53775;SDS011;44276;49.534;6.378;2023-03-31T06:22:52;9.70;;;3.65;;
53775;SDS011;44276;49.534;6.378;2023-03-31T06:25:21;15.50;;;4.45;;
53775;SDS011;44276;49.534;6.378;2023-03-31T06:27:49;10.13;;;3.85;;
53775;SDS011;44276;49.534;6.378;2023-03-31T06:30:18;14.65;;;4.72;;
53775;SDS011;44276;49.534;6.378;2023-03-31T06:32:47;8.77;;;4.43;;
53775;SDS011;44276;49.534;6.378;2023-03-31T06:35:15;9.77;;;4.70;;
53775;SDS011;44276;49.534;6.378;2023-03-31T06:37:43;12.95;;;5.60;;
53775;SDS011;44276;49.534;6.378;2023-03-31T06:40:12;15.13;;;4.43;;
53775;SDS011;44276;49.534;6.378;2023-03-31T06:42:41;10.27;;;4.47;;
53775;SDS011;44276;49.534;6.378;2023-03-31T06:45:09;19.75;;;5.35;;
53775;SDS011;44276;49.534;6.378;2023-03-31T06:47:39;23.75;;;3.33;;
53775;SDS011;44276;49.534;6.378;2023-03-31T06:50:08;11.50;;;3.55;;
53775;SDS011;44276;49.534;6.378;2023-03-31T06:52:38;17.10;;;4.78;;
53775;SDS011;44276;49.534;6.378;2023-03-31T06:55:07;10.77;;;3.90;;
53775;SDS011;44276;49.534;6.378;2023-03-31T06:57:38;15.25;;;3.63;;
53775;SDS011;44276;49.534;6.378;2023-03-31T07:00:07;13.88;;;3.28;;
53775;SDS011;44276;49.534;6.378;2023-03-31T07:02:36;15.15;;;3.92;;
53775;SDS011;44276;49.534;6.378;2023-03-31T07:05:07;10.18;;;2.83;;
53775;SDS011;44276;49.534;6.378;2023-03-31T07:07:39;14.02;;;2.40;;
53775;SDS011;44276;49.534;6.378;2023-03-31T07:10:11;15.98;;;4.30;;
53775;SDS011;44276;49.534;6.378;2023-03-31T07:12:39;11.30;;;3.13;;
53775;SDS011;44276;49.534;6.378;2023-03-31T07:15:08;17.27;;;3.35;;
53775;SDS011;44276;49.534;6.378;2023-03-31T07:17:37;16.55;;;4.10;;
53775;SDS011;44276;49.534;6.378;2023-03-31T07:20:09;16.33;;;3.30;;
53775;SDS011;44276;49.534;6.378;2023-03-31T07:22:40;19.00;;;3.72;;
53775;SDS011;44276;49.534;6.378;2023-03-31T07:25:09;19.42;;;5.15;;
53775;SDS011;44276;49.534;6.378;2023-03-31T07:27:40;21.35;;;3.50;;
53775;SDS011;44276;49.534;6.378;2023-03-31T07:30:11;22.70;;;3.47;;
53775;SDS011;44276;49.534;6.378;2023-03-31T07:32:42;14.45;;;4.13;;
53775;SDS011;44276;49.534;6.378;2023-03-31T07:35:14;10.60;;;4.55;;
53775;SDS011;44276;49.534;6.378;2023-03-31T07:37:43;16.38;;;4.93;;
53775;SDS011;44276;49.534;6.378;2023-03-31T07:40:15;10.98;;;3.25;;
53775;SDS011;44276;49.534;6.378;2023-03-31T07:42:46;11.57;;;2.85;;
53775;SDS011;44276;49.534;6.378;2023-03-31T07:45:17;10.18;;;2.25;;
53775;SDS011;44276;49.534;6.378;2023-03-31T07:47:47;13.52;;;2.75;;
53775;SDS011;44276;49.534;6.378;2023-03-31T07:50:18;10.05;;;3.10;;
53775;SDS011;44276;49.534;6.378;2023-03-31T07:52:46;16.23;;;2.92;;
53775;SDS011;44276;49.534;6.378;2023-03-31T07:55:14;18.80;;;3.38;;
53775;SDS011;44276;49.534;6.378;2023-03-31T07:57:42;12.80;;;4.72;;
53775;SDS011;44276;49.534;6.378;2023-03-31T08:00:13;13.02;;;2.80;;
53775;SDS011;44276;49.534;6.378;2023-03-31T08:02:42;25.55;;;4.25;;
53775;SDS011;44276;49.534;6.378;2023-03-31T08:05:12;13.02;;;4.28;;
53775;SDS011;44276;49.534;6.378;2023-03-31T08:07:46;14.38;;;3.38;;
53775;SDS011;44276;49.534;6.378;2023-03-31T08:10:18;16.23;;;3.83;;
53775;SDS011;44276;49.534;6.378;2023-03-31T08:12:51;24.05;;;4.63;;
53775;SDS011;44276;49.534;6.378;2023-03-31T08:15:21;16.30;;;4.88;;
53775;SDS011;44276;49.534;6.378;2023-03-31T08:17:49;14.05;;;3.08;;
53775;SDS011;44276;49.534;6.378;2023-03-31T08:20:18;17.67;;;2.25;;
53775;SDS011;44276;49.534;6.378;2023-03-31T08:22:47;16.02;;;1.85;;
53775;SDS011;44276;49.534;6.378;2023-03-31T08:25:16;9.55;;;2.35;;
53775;SDS011;44276;49.534;6.378;2023-03-31T08:27:45;16.65;;;1.98;;
53775;SDS011;44276;49.534;6.378;2023-03-31T08:30:16;16.05;;;4.15;;
53775;SDS011;44276;49.534;6.378;2023-03-31T08:32:46;15.23;;;2.10;;
53775;SDS011;44276;49.534;6.378;2023-03-31T08:35:14;9.20;;;2.05;;
53775;SDS011;44276;49.534;6.378;2023-03-31T08:37:42;17.73;;;3.20;;
53775;SDS011;44276;49.534;6.378;2023-03-31T08:40:13;12.57;;;2.40;;
53775;SDS011;44276;49.534;6.378;2023-03-31T08:42:49;21.30;;;3.60;;
53775;SDS011;44276;49.534;6.378;2023-03-31T08:45:22;9.38;;;2.33;;
53775;SDS011;44276;49.534;6.378;2023-03-31T08:47:58;11.45;;;2.33;;
53775;SDS011;44276;49.534;6.378;2023-03-31T08:50:34;14.67;;;3.40;;
53775;SDS011;44276;49.534;6.378;2023-03-31T08:53:16;16.20;;;3.92;;
53775;SDS011;44276;49.534;6.378;2023-03-31T08:55:53;14.32;;;4.30;;
53775;SDS011;44276;49.534;6.378;2023-03-31T08:58:28;20.35;;;2.88;;
53775;SDS011;44276;49.534;6.378;2023-03-31T09:01:07;13.70;;;1.73;;
53775;SDS011;44276;49.534;6.378;2023-03-31T09:03:51;13.27;;;2.08;;
53775;SDS011;44276;49.534;6.378;2023-03-31T09:06:38;11.27;;;2.47;;
53775;SDS011;44276;49.534;6.378;2023-03-31T09:09:14;8.68;;;1.90;;
53775;SDS011;44276;49.534;6.378;2023-03-31T09:11:54;10.32;;;3.03;;
53775;SDS011;44276;49.534;6.378;2023-03-31T09:14:29;9.95;;;2.70;;
53775;SDS011;44276;49.534;6.378;2023-03-31T09:17:11;13.82;;;3.00;;
53775;SDS011;44276;49.534;6.378;2023-03-31T09:19:48;10.27;;;3.70;;
53775;SDS011;44276;49.534;6.378;2023-03-31T09:22:21;14.40;;;2.90;;
53775;SDS011;44276;49.534;6.378;2023-03-31T09:24:57;12.52;;;2.67;;
53775;SDS011;44276;49.534;6.378;2023-03-31T09:27:34;12.63;;;2.40;;
53775;SDS011;44276;49.534;6.378;2023-03-31T09:30:08;19.08;;;4.13;;
53775;SDS011;44276;49.534;6.378;2023-03-31T09:32:43;14.43;;;3.40;;
53775;SDS011;44276;49.534;6.378;2023-03-31T09:35:15;7.97;;;2.10;;
53775;SDS011;44276;49.534;6.378;2023-03-31T09:37:48;10.63;;;2.50;;
53775;SDS011;44276;49.534;6.378;2023-03-31T09:40:18;10.45;;;3.90;;
53775;SDS011;44276;49.534;6.378;2023-03-31T09:42:54;23.70;;;4.57;;
53775;SDS011;44276;49.534;6.378;2023-03-31T09:45:27;11.25;;;1.73;;
53775;SDS011;44276;49.534;6.378;2023-03-31T09:48:00;13.23;;;2.97;;
53775;SDS011;44276;49.534;6.378;2023-03-31T09:50:35;7.80;;;3.63;;
53775;SDS011;44276;49.534;6.378;2023-03-31T09:53:13;14.18;;;2.67;;
53775;SDS011;44276;49.534;6.378;2023-03-31T09:55:49;7.18;;;2.92;;
53775;SDS011;44276;49.534;6.378;2023-03-31T09:58:23;16.48;;;2.97;;
53775;SDS011;44276;49.534;6.378;2023-03-31T10:00:58;12.13;;;2.88;;
53775;SDS011;44276;49.534;6.378;2023-03-31T10:03:29;18.58;;;3.42;;
53775;SDS011;44276;49.534;6.378;2023-03-31T10:06:07;14.80;;;3.45;;
53775;SDS011;44276;49.534;6.378;2023-03-31T10:08:37;7.00;;;2.17;;
53775;SDS011;44276;49.534;6.378;2023-03-31T10:11:09;10.02;;;2.10;;
53775;SDS011;44276;49.534;6.378;2023-03-31T10:13:45;9.80;;;2.53;;
53775;SDS011;44276;49.534;6.378;2023-03-31T10:16:27;11.60;;;2.42;;
53775;SDS011;44276;49.534;6.378;2023-03-31T10:19:12;7.03;;;2.05;;
53775;SDS011;44276;49.534;6.378;2023-03-31T10:21:47;8.70;;;2.03;;
53775;SDS011;44276;49.534;6.378;2023-03-31T10:24:24;7.35;;;2.67;;
53775;SDS011;44276;49.534;6.378;2023-03-31T10:27:03;7.95;;;3.28;;
53775;SDS011;44276;49.534;6.378;2023-03-31T10:29:44;12.65;;;1.95;;
53775;SDS011;44276;49.534;6.378;2023-03-31T10:32:16;7.50;;;1.38;;
53775;SDS011;44276;49.534;6.378;2023-03-31T10:34:50;14.30;;;3.47;;
53775;SDS011;44276;49.534;6.378;2023-03-31T10:37:20;16.13;;;2.90;;
53775;SDS011;44276;49.534;6.378;2023-03-31T10:39:55;8.10;;;1.60;;
53775;SDS011;44276;49.534;6.378;2023-03-31T10:42:27;8.90;;;2.05;;
53775;SDS011;44276;49.534;6.378;2023-03-31T10:45:10;4.68;;;1.23;;
53775;SDS011;44276;49.534;6.378;2023-03-31T10:48:03;18.73;;;1.75;;
53775;SDS011;44276;49.534;6.378;2023-03-31T10:50:43;8.15;;;0.75;;
53775;SDS011;44276;49.534;6.378;2023-03-31T10:53:13;10.55;;;1.65;;
53775;SDS011;44276;49.534;6.378;2023-03-31T10:55:45;11.95;;;1.42;;
53775;SDS011;44276;49.534;6.378;2023-03-31T10:58:32;4.53;;;1.50;;
53775;SDS011;44276;49.534;6.378;2023-03-31T11:01:35;2.72;;;0.68;;
53775;SDS011;44276;49.534;6.378;2023-03-31T11:04:32;10.02;;;1.67;;
53775;SDS011;44276;49.534;6.378;2023-03-31T11:07:27;9.55;;;1.55;;
53775;SDS011;44276;49.534;6.378;2023-03-31T11:10:16;4.68;;;1.30;;
53775;SDS011;44276;49.534;6.378;2023-03-31T11:13:04;6.80;;;1.73;;
53775;SDS011;44276;49.534;6.378;2023-03-31T11:15:42;7.72;;;1.85;;
53775;SDS011;44276;49.534;6.378;2023-03-31T11:18:31;7.65;;;1.25;;
53775;SDS011;44276;49.534;6.378;2023-03-31T11:21:18;5.25;;;1.38;;
53775;SDS011;44276;49.534;6.378;2023-03-31T11:23:57;17.30;;;3.38;;
53775;SDS011;44276;49.534;6.378;2023-03-31T11:26:39;5.25;;;1.20;;
53775;SDS011;44276;49.534;6.378;2023-03-31T11:29:24;6.35;;;0.95;;
53775;SDS011;44276;49.534;6.378;2023-03-31T11:32:09;5.00;;;0.80;;
53775;SDS011;44276;49.534;6.378;2023-03-31T11:35:37;9.95;;;1.25;;
53775;SDS011;44276;49.534;6.378;2023-03-31T11:41:38;2.70;;;0.90;;
53775;SDS011;44276;49.534;6.378;2023-03-31T11:44:15;5.95;;;0.90;;
53775;SDS011;44276;49.534;6.378;2023-03-31T11:46:49;4.70;;;0.82;;
53775;SDS011;44276;49.534;6.378;2023-03-31T11:49:26;1.52;;;0.70;;
53775;SDS011;44276;49.534;6.378;2023-03-31T11:51:59;7.97;;;0.80;;
53775;SDS011;44276;49.534;6.378;2023-03-31T11:54:36;4.95;;;0.63;;
53775;SDS011;44276;49.534;6.378;2023-03-31T11:57:15;9.50;;;1.20;;
53775;SDS011;44276;49.534;6.378;2023-03-31T11:59:51;3.80;;;0.85;;
53775;SDS011;44276;49.534;6.378;2023-03-31T12:05:07;9.48;;;1.90;;
53775;SDS011;44276;49.534;6.378;2023-03-31T12:07:42;8.40;;;1.73;;
53775;SDS011;44276;49.534;6.378;2023-03-31T12:10:18;4.88;;;1.23;;
53775;SDS011;44276;49.534;6.378;2023-03-31T12:12:50;8.35;;;1.85;;
53775;SDS011;44276;49.534;6.378;2023-03-31T12:15:29;9.52;;;1.50;;
53775;SDS011;44276;49.534;6.378;2023-03-31T12:18:08;9.10;;;1.65;;
53775;SDS011;44276;49.534;6.378;2023-03-31T12:20:43;6.15;;;1.58;;
53775;SDS011;44276;49.534;6.378;2023-03-31T12:23:20;15.43;;;2.00;;
53775;SDS011;44276;49.534;6.378;2023-03-31T12:25:54;8.60;;;2.92;;
53775;SDS011;44276;49.534;6.378;2023-03-31T12:28:33;4.10;;;1.52;;
53775;SDS011;44276;49.534;6.378;2023-03-31T12:31:06;13.40;;;2.20;;
53775;SDS011;44276;49.534;6.378;2023-03-31T12:33:40;7.88;;;1.60;;
53775;SDS011;44276;49.534;6.378;2023-03-31T12:36:18;10.10;;;1.92;;
53775;SDS011;44276;49.534;6.378;2023-03-31T12:39:15;5.22;;;1.65;;
53775;SDS011;44276;49.534;6.378;2023-03-31T12:42:00;12.38;;;2.42;;
53775;SDS011;44276;49.534;6.378;2023-03-31T12:44:58;13.82;;;1.67;;
53775;SDS011;44276;49.534;6.378;2023-03-31T12:50:55;10.90;;;2.58;;
53775;SDS011;44276;49.534;6.378;2023-03-31T12:53:53;8.10;;;2.33;;
53775;SDS011;44276;49.534;6.378;2023-03-31T12:57:02;8.10;;;1.75;;
53775;SDS011;44276;49.534;6.378;2023-03-31T12:59:43;7.53;;;1.58;;
53775;SDS011;44276;49.534;6.378;2023-03-31T13:04:58;5.30;;;0.85;;
53775;SDS011;44276;49.534;6.378;2023-03-31T13:08:01;9.63;;;1.58;;
53775;SDS011;44276;49.534;6.378;2023-03-31T13:10:31;7.10;;;1.58;;
53775;SDS011;44276;49.534;6.378;2023-03-31T13:13:19;4.05;;;1.50;;
53775;SDS011;44276;49.534;6.378;2023-03-31T13:15:49;9.80;;;1.48;;
53775;SDS011;44276;49.534;6.378;2023-03-31T13:18:19;8.60;;;1.85;;
53775;SDS011;44276;49.534;6.378;2023-03-31T13:20:56;6.53;;;1.33;;
53775;SDS011;44276;49.534;6.378;2023-03-31T13:23:26;6.88;;;1.25;;
53775;SDS011;44276;49.534;6.378;2023-03-31T13:26:00;7.82;;;1.60;;
53775;SDS011;44276;49.534;6.378;2023-03-31T13:28:38;6.75;;;1.65;;
53775;SDS011;44276;49.534;6.378;2023-03-31T13:31:09;10.57;;;2.55;;
53775;SDS011;44276;49.534;6.378;2023-03-31T13:33:50;6.00;;;0.80;;
53775;SDS011;44276;49.534;6.378;2023-03-31T13:36:38;10.45;;;2.10;;
53775;SDS011;44276;49.534;6.378;2023-03-31T13:39:43;9.50;;;1.85;;
53775;SDS011;44276;49.534;6.378;2023-03-31T13:45:55;5.10;;;1.40;;
53775;SDS011;44276;49.534;6.378;2023-03-31T13:48:48;8.73;;;1.83;;
53775;SDS011;44276;49.534;6.378;2023-03-31T13:51:41;7.68;;;1.15;;
53775;SDS011;44276;49.534;6.378;2023-03-31T13:54:42;4.10;;;1.15;;
53775;SDS011;44276;49.534;6.378;2023-03-31T14:01:08;2.53;;;0.68;;
53775;SDS011;44276;49.534;6.378;2023-03-31T14:04:32;7.43;;;1.65;;
53775;SDS011;44276;49.534;6.378;2023-03-31T14:07:37;5.80;;;1.63;;
53775;SDS011;44276;49.534;6.378;2023-03-31T14:10:25;6.43;;;1.50;;
53775;SDS011;44276;49.534;6.378;2023-03-31T14:13:04;6.53;;;1.02;;
53775;SDS011;44276;49.534;6.378;2023-03-31T14:15:39;3.67;;;0.77;;
53775;SDS011;44276;49.534;6.378;2023-03-31T14:18:17;2.03;;;0.90;;
53775;SDS011;44276;49.534;6.378;2023-03-31T14:20:55;7.85;;;1.70;;
53775;SDS011;44276;49.534;6.378;2023-03-31T14:23:42;1.30;;;0.30;;
53775;SDS011;44276;49.534;6.378;2023-03-31T14:26:32;2.08;;;0.75;;
53775;SDS011;44276;49.534;6.378;2023-03-31T14:29:17;8.52;;;1.30;;
53775;SDS011;44276;49.534;6.378;2023-03-31T14:31:58;10.00;;;2.00;;
53775;SDS011;44276;49.534;6.378;2023-03-31T14:34:45;11.15;;;3.20;;
53775;SDS011;44276;49.534;6.378;2023-03-31T14:37:29;6.75;;;1.05;;
53775;SDS011;44276;49.534;6.378;2023-03-31T14:39:59;4.05;;;0.70;;
53775;SDS011;44276;49.534;6.378;2023-03-31T14:42:31;4.35;;;1.10;;
53775;SDS011;44276;49.534;6.378;2023-03-31T14:45:14;5.70;;;1.27;;
53775;SDS011;44276;49.534;6.378;2023-03-31T14:47:54;8.93;;;1.35;;
53775;SDS011;44276;49.534;6.378;2023-03-31T14:50:29;8.75;;;1.27;;
53775;SDS011;44276;49.534;6.378;2023-03-31T14:53:02;2.28;;;0.98;;
53775;SDS011;44276;49.534;6.378;2023-03-31T14:55:31;10.10;;;2.50;;
53775;SDS011;44276;49.534;6.378;2023-03-31T14:58:04;7.07;;;1.10;;
53775;SDS011;44276;49.534;6.378;2023-03-31T15:00:38;7.13;;;1.73;;
53775;SDS011;44276;49.534;6.378;2023-03-31T15:03:08;4.78;;;0.88;;
53775;SDS011;44276;49.534;6.378;2023-03-31T15:05:44;3.90;;;1.17;;
53775;SDS011;44276;49.534;6.378;2023-03-31T15:08:16;8.30;;;2.03;;
53775;SDS011;44276;49.534;6.378;2023-03-31T15:10:48;5.78;;;1.15;;
53775;SDS011;44276;49.534;6.378;2023-03-31T15:13:37;7.85;;;0.70;;
53775;SDS011;44276;49.534;6.378;2023-03-31T15:16:30;4.70;;;0.93;;
53775;SDS011;44276;49.534;6.378;2023-03-31T15:19:10;20.75;;;1.33;;
53775;SDS011;44276;49.534;6.378;2023-03-31T15:21:44;13.57;;;1.80;;
53775;SDS011;44276;49.534;6.378;2023-03-31T15:24:13;9.90;;;2.70;;
53775;SDS011;44276;49.534;6.378;2023-03-31T15:26:42;4.30;;;2.17;;
53775;SDS011;44276;49.534;6.378;2023-03-31T15:29:21;4.78;;;1.75;;
53775;SDS011;44276;49.534;6.378;2023-03-31T15:32:05;6.57;;;1.52;;
53775;SDS011;44276;49.534;6.378;2023-03-31T15:34:41;5.00;;;1.75;;
53775;SDS011;44276;49.534;6.378;2023-03-31T15:37:13;3.40;;;0.82;;
53775;SDS011;44276;49.534;6.378;2023-03-31T15:39:42;3.05;;;1.52;;
53775;SDS011;44276;49.534;6.378;2023-03-31T15:42:14;5.80;;;1.50;;
53775;SDS011;44276;49.534;6.378;2023-03-31T15:44:45;6.47;;;2.35;;
53775;SDS011;44276;49.534;6.378;2023-03-31T15:47:20;5.53;;;0.90;;
53775;SDS011;44276;49.534;6.378;2023-03-31T15:49:56;8.07;;;1.00;;
53775;SDS011;44276;49.534;6.378;2023-03-31T15:52:33;10.00;;;1.10;;
53775;SDS011;44276;49.534;6.378;2023-03-31T15:57:57;9.65;;;1.20;;
53775;SDS011;44276;49.534;6.378;2023-03-31T16:00:39;4.45;;;0.98;;
53775;SDS011;44276;49.534;6.378;2023-03-31T16:03:15;3.17;;;0.80;;
53775;SDS011;44276;49.534;6.378;2023-03-31T16:05:52;6.70;;;1.20;;
53775;SDS011;44276;49.534;6.378;2023-03-31T16:09:13;5.68;;;1.60;;